sensor_id;sensor_type;location;lat;lon;timestamp;pressure;altitude;pressure_sealevel;temperature;humidity
19789;BME280;10054;59.332;18.244;2024-02-21T00:00:07;100491.55;;;0.19;100.00
19789;BME280;10054;59.332;18.244;2024-02-21T00:02:37;100495.00;;;0.20;100.00
19789;BME280;10054;59.332;18.244;2024-02-21T00:05:06;100498.41;;;0.22;100.00
19789;BME280;10054;59.332;18.244;2024-02-21T00:07:36;100501.00;;;0.22;100.00
19789;BME280;10054;59.332;18.244;2024-02-21T00:10:05;100496.23;;;0.23;100.00
19789;BME280;10054;59.332;18.244;2024-02-21T00:12:34;100493.22;;;0.22;100.00
19789;BME280;10054;59.332;18.244;2024-02-21T00:15:04;100498.86;;;0.21;100.00
19789;BME280;10054;59.332;18.244;2024-02-21T00:17:34;100493.66;;;0.21;100.00
19789;BME280;10054;59.332;18.244;2024-02-21T00:20:03;100487.21;;;0.20;100.00
19789;BME280;10054;59.332;18.244;2024-02-21T00:22:32;100486.80;;;0.19;100.00
19789;BME280;10054;59.332;18.244;2024-02-21T00:25:01;100478.61;;;0.18;100.00
19789;BME280;10054;59.332;18.244;2024-02-21T00:27:31;100478.20;;;0.17;100.00
19789;BME280;10054;59.332;18.244;2024-02-21T00:30:00;100475.61;;;0.17;100.00
19789;BME280;10054;59.332;18.244;2024-02-21T00:32:29;100476.91;;;0.17;100.00
19789;BME280;10054;59.332;18.244;2024-02-21T00:34:58;100475.13;;;0.19;100.00
19789;BME280;10054;59.332;18.244;2024-02-21T00:37:27;100468.61;;;0.20;100.00
19789;BME280;10054;59.332;18.244;2024-02-21T00:39:56;100463.87;;;0.20;100.00
19789;BME280;10054;59.332;18.244;2024-02-21T00:42:25;100458.20;;;0.22;100.00
19789;BME280;10054;59.332;18.244;2024-02-21T00:44:54;100454.69;;;0.24;100.00
19789;BME280;10054;59.332;18.244;2024-02-21T00:47:23;100446.02;;;0.25;100.00
19789;BME280;10054;59.332;18.244;2024-02-21T00:49:52;100446.39;;;0.28;100.00
19789;BME280;10054;59.332;18.244;2024-02-21T00:52:23;100454.10;;;0.31;100.00
19789;BME280;10054;59.332;18.244;2024-02-21T00:54:52;100446.72;;;0.32;100.00
19789;BME280;10054;59.332;18.244;2024-02-21T00:57:21;100446.31;;;0.31;100.00
19789;BME280;10054;59.332;18.244;2024-02-21T00:59:51;100442.91;;;0.29;100.00
19789;BME280;10054;59.332;18.244;2024-02-21T01:02:20;100438.23;;;0.25;100.00
19789;BME280;10054;59.332;18.244;2024-02-21T01:04:50;100435.27;;;0.23;100.00
19789;BME280;10054;59.332;18.244;2024-02-21T01:07:19;100433.15;;;0.21;100.00
19789;BME280;10054;59.332;18.244;2024-02-21T01:09:48;100431.89;;;0.19;100.00
19789;BME280;10054;59.332;18.244;2024-02-21T01:12:18;100426.33;;;0.17;100.00
19789;BME280;10054;59.332;18.244;2024-02-21T01:14:47;100415.54;;;0.16;100.00
19789;BME280;10054;59.332;18.244;2024-02-21T01:17:17;100418.58;;;0.15;100.00
19789;BME280;10054;59.332;18.244;2024-02-21T01:19:47;100412.54;;;0.15;100.00
19789;BME280;10054;59.332;18.244;2024-02-21T01:22:16;100401.75;;;0.14;100.00
19789;BME280;10054;59.332;18.244;2024-02-21T01:24:45;100397.45;;;0.13;100.00
19789;BME280;10054;59.332;18.244;2024-02-21T01:27:14;100383.23;;;0.11;100.00
19789;BME280;10054;59.332;18.244;2024-02-21T01:29:44;100377.59;;;0.12;100.00
19789;BME280;10054;59.332;18.244;2024-02-21T01:32:15;100367.22;;;0.12;100.00
19789;BME280;10054;59.332;18.244;2024-02-21T01:34:44;100366.33;;;0.13;100.00
19789;BME280;10054;59.332;18.244;2024-02-21T01:37:13;100362.48;;;0.11;100.00
19789;BME280;10054;59.332;18.244;2024-02-21T01:39:42;100350.84;;;0.10;100.00
19789;BME280;10054;59.332;18.244;2024-02-21T01:42:11;100345.17;;;0.12;100.00
19789;BME280;10054;59.332;18.244;2024-02-21T01:44:41;100342.63;;;0.10;100.00
19789;BME280;10054;59.332;18.244;2024-02-21T01:47:11;100341.80;;;0.08;100.00
19789;BME280;10054;59.332;18.244;2024-02-21T01:49:41;100331.50;;;0.05;100.00
19789;BME280;10054;59.332;18.244;2024-02-21T01:52:12;100328.95;;;0.04;100.00
19789;BME280;10054;59.332;18.244;2024-02-21T01:54:42;100333.24;;;0.05;100.00
19789;BME280;10054;59.332;18.244;2024-02-21T01:57:11;100324.54;;;0.07;100.00
19789;BME280;10054;59.332;18.244;2024-02-21T01:59:40;100326.17;;;0.11;100.00
19789;BME280;10054;59.332;18.244;2024-02-21T02:02:09;100326.02;;;0.17;100.00
19789;BME280;10054;59.332;18.244;2024-02-21T02:04:39;100321.90;;;0.26;100.00
19789;BME280;10054;59.332;18.244;2024-02-21T02:07:08;100316.08;;;0.35;100.00
19789;BME280;10054;59.332;18.244;2024-02-21T02:09:37;100310.07;;;0.32;100.00
19789;BME280;10054;59.332;18.244;2024-02-21T02:12:06;100313.67;;;0.27;100.00
19789;BME280;10054;59.332;18.244;2024-02-21T02:14:36;100306.86;;;0.23;100.00
19789;BME280;10054;59.332;18.244;2024-02-21T02:17:05;100304.38;;;0.18;100.00
19789;BME280;10054;59.332;18.244;2024-02-21T02:19:34;100300.12;;;0.16;100.00
19789;BME280;10054;59.332;18.244;2024-02-21T02:22:09;100296.71;;;0.14;100.00
19789;BME280;10054;59.332;18.244;2024-02-21T02:24:38;100283.82;;;0.11;100.00
19789;BME280;10054;59.332;18.244;2024-02-21T02:27:07;100289.01;;;0.11;100.00
19789;BME280;10054;59.332;18.244;2024-02-21T02:29:36;100276.93;;;0.10;100.00
19789;BME280;10054;59.332;18.244;2024-02-21T02:32:06;100267.85;;;0.10;100.00
19789;BME280;10054;59.332;18.244;2024-02-21T02:34:35;100265.22;;;0.11;100.00
19789;BME280;10054;59.332;18.244;2024-02-21T02:37:04;100256.14;;;0.11;100.00
19789;BME280;10054;59.332;18.244;2024-02-21T02:39:34;100259.99;;;0.13;100.00
19789;BME280;10054;59.332;18.244;2024-02-21T02:42:03;100258.25;;;0.13;100.00
19789;BME280;10054;59.332;18.244;2024-02-21T02:44:32;100258.25;;;0.13;100.00
19789;BME280;10054;59.332;18.244;2024-02-21T02:47:01;100259.92;;;0.16;100.00
19789;BME280;10054;59.332;18.244;2024-02-21T02:49:31;100255.98;;;0.17;100.00
19789;BME280;10054;59.332;18.244;2024-02-21T02:52:00;100248.13;;;0.20;100.00
19789;BME280;10054;59.332;18.244;2024-02-21T02:54:29;100242.81;;;0.25;100.00
19789;BME280;10054;59.332;18.244;2024-02-21T02:56:58;100247.40;;;0.31;100.00
19789;BME280;10054;59.332;18.244;2024-02-21T02:59:28;100243.34;;;0.38;100.00
19789;BME280;10054;59.332;18.244;2024-02-21T03:01:57;100241.39;;;0.46;100.00
19789;BME280;10054;59.332;18.244;2024-02-21T03:04:25;100241.35;;;0.47;100.00
19789;BME280;10054;59.332;18.244;2024-02-21T03:06:55;100245.24;;;0.47;100.00
19789;BME280;10054;59.332;18.244;2024-02-21T03:09:24;100243.98;;;0.46;100.00
19789;BME280;10054;59.332;18.244;2024-02-21T03:11:53;100240.14;;;0.44;100.00
19789;BME280;10054;59.332;18.244;2024-02-21T03:14:23;100239.73;;;0.43;100.00
19789;BME280;10054;59.332;18.244;2024-02-21T03:16:53;100246.22;;;0.43;100.00
19789;BME280;10054;59.332;18.244;2024-02-21T03:19:22;100247.07;;;0.44;100.00
19789;BME280;10054;59.332;18.244;2024-02-21T03:21:52;100247.48;;;0.45;100.00
19789;BME280;10054;59.332;18.244;2024-02-21T03:24:21;100242.65;;;0.47;100.00
19789;BME280;10054;59.332;18.244;2024-02-21T03:26:50;100235.72;;;0.48;100.00
19789;BME280;10054;59.332;18.244;2024-02-21T03:29:19;100228.34;;;0.49;100.00
19789;BME280;10054;59.332;18.244;2024-02-21T03:31:49;100224.40;;;0.50;100.00
19789;BME280;10054;59.332;18.244;2024-02-21T03:34:18;100217.51;;;0.49;100.00
19789;BME280;10054;59.332;18.244;2024-02-21T03:36:47;100214.91;;;0.49;100.00
19789;BME280;10054;59.332;18.244;2024-02-21T03:39:16;100208.88;;;0.49;100.00
19789;BME280;10054;59.332;18.244;2024-02-21T03:41:45;100206.68;;;0.50;100.00
19789;BME280;10054;59.332;18.244;2024-02-21T03:44:15;100198.09;;;0.48;100.00
19789;BME280;10054;59.332;18.244;2024-02-21T03:46:44;100197.69;;;0.47;100.00
19789;BME280;10054;59.332;18.244;2024-02-21T03:49:13;100191.16;;;0.48;100.00
19789;BME280;10054;59.332;18.244;2024-02-21T03:51:42;100187.22;;;0.50;100.00
19789;BME280;10054;59.332;18.244;2024-02-21T03:54:12;100184.58;;;0.51;100.00
19789;BME280;10054;59.332;18.244;2024-02-21T03:56:41;100182.34;;;0.54;100.00
19789;BME280;10054;59.332;18.244;2024-02-21T03:59:10;100177.91;;;0.57;100.00
19789;BME280;10054;59.332;18.244;2024-02-21T04:01:39;100173.98;;;0.59;100.00
19789;BME280;10054;59.332;18.244;2024-02-21T04:04:09;100171.70;;;0.63;100.00
19789;BME280;10054;59.332;18.244;2024-02-21T04:06:48;100171.52;;;0.69;100.00
19789;BME280;10054;59.332;18.244;2024-02-21T04:09:17;100169.52;;;0.77;100.00
19789;BME280;10054;59.332;18.244;2024-02-21T04:11:46;100163.78;;;0.81;100.00
19789;BME280;10054;59.332;18.244;2024-02-21T04:14:16;100169.07;;;0.78;100.00
19789;BME280;10054;59.332;18.244;2024-02-21T04:16:45;100164.38;;;0.76;100.00
19789;BME280;10054;59.332;18.244;2024-02-21T04:19:14;100159.30;;;0.73;100.00
19789;BME280;10054;59.332;18.244;2024-02-21T04:21:43;100156.34;;;0.70;100.00
19789;BME280;10054;59.332;18.244;2024-02-21T04:24:12;100152.50;;;0.69;100.00
19789;BME280;10054;59.332;18.244;2024-02-21T04:26:41;100150.39;;;0.67;100.00
19789;BME280;10054;59.332;18.244;2024-02-21T04:29:12;100137.87;;;0.66;100.00
19789;BME280;10054;59.332;18.244;2024-02-21T04:31:40;100127.08;;;0.65;100.00
19789;BME280;10054;59.332;18.244;2024-02-21T04:34:10;100125.37;;;0.64;100.00
19789;BME280;10054;59.332;18.244;2024-02-21T04:36:39;100121.48;;;0.64;100.00
19789;BME280;10054;59.332;18.244;2024-02-21T04:39:08;100126.14;;;0.68;100.00
19789;BME280;10054;59.332;18.244;2024-02-21T04:41:37;100128.24;;;0.70;100.00
19789;BME280;10054;59.332;18.244;2024-02-21T04:44:06;100116.06;;;0.72;100.00
19789;BME280;10054;59.332;18.244;2024-02-21T04:46:35;100119.95;;;0.72;100.00
19789;BME280;10054;59.332;18.244;2024-02-21T04:49:04;100112.13;;;0.73;100.00
19789;BME280;10054;59.332;18.244;2024-02-21T04:51:34;100107.70;;;0.75;100.00
19789;BME280;10054;59.332;18.244;2024-02-21T04:54:03;100109.80;;;0.77;100.00
19789;BME280;10054;59.332;18.244;2024-02-21T04:56:32;100103.27;;;0.79;100.00
19789;BME280;10054;59.332;18.244;2024-02-21T04:59:01;100104.87;;;0.83;100.00
19789;BME280;10054;59.332;18.244;2024-02-21T05:01:30;100099.14;;;0.86;100.00
19789;BME280;10054;59.332;18.244;2024-02-21T05:03:59;100093.84;;;0.89;100.00
19789;BME280;10054;59.332;18.244;2024-02-21T05:06:29;100084.27;;;0.91;100.00
19789;BME280;10054;59.332;18.244;2024-02-21T05:08:58;100084.61;;;0.94;100.00
19789;BME280;10054;59.332;18.244;2024-02-21T05:11:27;100081.07;;;0.96;100.00
19789;BME280;10054;59.332;18.244;2024-02-21T05:13:56;100077.92;;;1.00;100.00
19789;BME280;10054;59.332;18.244;2024-02-21T05:16:25;100072.09;;;1.07;100.00
19789;BME280;10054;59.332;18.244;2024-02-21T05:18:54;100066.30;;;1.12;100.00
19789;BME280;10054;59.332;18.244;2024-02-21T05:21:24;100066.49;;;1.19;100.00
19789;BME280;10054;59.332;18.244;2024-02-21T05:23:53;100066.23;;;1.26;100.00
19789;BME280;10054;59.332;18.244;2024-02-21T05:26:23;100065.34;;;1.27;100.00
19789;BME280;10054;59.332;18.244;2024-02-21T05:28:53;100066.23;;;1.26;100.00
19789;BME280;10054;59.332;18.244;2024-02-21T05:31:22;100064.14;;;1.24;100.00
19789;BME280;10054;59.332;18.244;2024-02-21T05:33:51;100060.80;;;1.21;100.00
19789;BME280;10054;59.332;18.244;2024-02-21T05:36:20;100061.70;;;1.20;100.00
19789;BME280;10054;59.332;18.244;2024-02-21T05:38:49;100056.55;;;1.18;100.00
19789;BME280;10054;59.332;18.244;2024-02-21T05:41:19;100053.95;;;1.18;100.00
19789;BME280;10054;59.332;18.244;2024-02-21T05:43:48;100046.16;;;1.18;100.00
19789;BME280;10054;59.332;18.244;2024-02-21T05:46:20;100044.02;;;1.18;100.00
19789;BME280;10054;59.332;18.244;2024-02-21T05:48:50;100035.77;;;1.18;100.00
19789;BME280;10054;59.332;18.244;2024-02-21T05:51:19;100037.02;;;1.20;100.00
19789;BME280;10054;59.332;18.244;2024-02-21T05:53:48;100035.66;;;1.21;100.00
19789;BME280;10054;59.332;18.244;2024-02-21T05:56:17;100027.02;;;1.21;100.00
19789;BME280;10054;59.332;18.244;2024-02-21T05:58:46;100024.77;;;1.23;100.00
19789;BME280;10054;59.332;18.244;2024-02-21T06:01:16;100027.37;;;1.23;100.00
19789;BME280;10054;59.332;18.244;2024-02-21T06:03:45;100022.57;;;1.24;100.00
19789;BME280;10054;59.332;18.244;2024-02-21T06:06:14;100023.87;;;1.24;100.00
19789;BME280;10054;59.332;18.244;2024-02-21T06:08:43;100020.77;;;1.26;100.00
19789;BME280;10054;59.332;18.244;2024-02-21T06:11:13;100013.87;;;1.25;100.00
19789;BME280;10054;59.332;18.244;2024-02-21T06:13:43;100009.08;;;1.26;100.00
19789;BME280;10054;59.332;18.244;2024-02-21T06:16:12;100006.87;;;1.27;100.00
19789;BME280;10054;59.332;18.244;2024-02-21T06:18:42;100009.03;;;1.28;100.00
19789;BME280;10054;59.332;18.244;2024-02-21T06:21:11;99998.12;;;1.30;100.00
19789;BME280;10054;59.332;18.244;2024-02-21T06:23:40;100002.38;;;1.33;100.00
19789;BME280;10054;59.332;18.244;2024-02-21T06:26:09;100004.47;;;1.35;100.00
19789;BME280;10054;59.332;18.244;2024-02-21T06:28:39;100003.56;;;1.36;100.00
19789;BME280;10054;59.332;18.244;2024-02-21T06:31:08;100004.77;;;1.39;100.00
19789;BME280;10054;59.332;18.244;2024-02-21T06:33:38;100001.61;;;1.42;100.00
19789;BME280;10054;59.332;18.244;2024-02-21T06:36:07;100004.94;;;1.46;100.00
19789;BME280;10054;59.332;18.244;2024-02-21T06:38:36;100009.09;;;1.50;100.00
19789;BME280;10054;59.332;18.244;2024-02-21T06:41:06;100008.09;;;1.54;100.00
19789;BME280;10054;59.332;18.244;2024-02-21T06:43:35;100002.96;;;1.64;100.00
19789;BME280;10054;59.332;18.244;2024-02-21T06:46:04;99998.50;;;1.68;100.00
19789;BME280;10054;59.332;18.244;2024-02-21T06:48:33;99990.75;;;1.66;100.00
19789;BME280;10054;59.332;18.244;2024-02-21T06:51:02;99987.25;;;1.67;100.00
19789;BME280;10054;59.332;18.244;2024-02-21T06:53:32;99983.86;;;1.65;100.00
19789;BME280;10054;59.332;18.244;2024-02-21T06:56:01;99985.27;;;1.62;100.00
19789;BME280;10054;59.332;18.244;2024-02-21T06:58:31;99987.92;;;1.60;100.00
19789;BME280;10054;59.332;18.244;2024-02-21T07:01:00;99983.63;;;1.59;100.00
19789;BME280;10054;59.332;18.244;2024-02-21T07:03:29;99981.88;;;1.60;100.00
19789;BME280;10054;59.332;18.244;2024-02-21T07:05:59;99979.28;;;1.60;100.00
19789;BME280;10054;59.332;18.244;2024-02-21T07:08:28;99973.17;;;1.61;100.00
19789;BME280;10054;59.332;18.244;2024-02-21T07:10:57;99965.32;;;1.62;100.00
19789;BME280;10054;59.332;18.244;2024-02-21T07:13:26;99964.42;;;1.63;100.00
19789;BME280;10054;59.332;18.244;2024-02-21T07:15:55;99958.26;;;1.66;100.00
19789;BME280;10054;59.332;18.244;2024-02-21T07:18:25;99953.85;;;1.68;100.00
19789;BME280;10054;59.332;18.244;2024-02-21T07:20:54;99945.99;;;1.70;100.00
19789;BME280;10054;59.332;18.244;2024-02-21T07:23:23;99948.48;;;1.73;100.00
19789;BME280;10054;59.332;18.244;2024-02-21T07:25:52;99938.81;;;1.76;100.00
19789;BME280;10054;59.332;18.244;2024-02-21T07:28:21;99937.85;;;1.79;100.00
19789;BME280;10054;59.332;18.244;2024-02-21T07:30:50;99930.73;;;1.84;100.00
19789;BME280;10054;59.332;18.244;2024-02-21T07:33:20;99923.54;;;1.90;100.00
19789;BME280;10054;59.332;18.244;2024-02-21T07:35:49;99919.46;;;1.95;100.00
19789;BME280;10054;59.332;18.244;2024-02-21T07:38:18;99919.52;;;1.93;100.00
19789;BME280;10054;59.332;18.244;2024-02-21T07:40:47;99922.63;;;1.91;100.00
19789;BME280;10054;59.332;18.244;2024-02-21T07:43:17;99921.91;;;1.88;100.00
19789;BME280;10054;59.332;18.244;2024-02-21T07:45:46;99923.77;;;1.84;100.00
19789;BME280;10054;59.332;18.244;2024-02-21T07:48:15;99922.98;;;1.82;100.00
19789;BME280;10054;59.332;18.244;2024-02-21T07:50:44;99922.13;;;1.82;100.00
19789;BME280;10054;59.332;18.244;2024-02-21T07:53:14;99923.04;;;1.81;100.00
19789;BME280;10054;59.332;18.244;2024-02-21T07:55:44;99927.79;;;1.81;100.00
19789;BME280;10054;59.332;18.244;2024-02-21T07:58:13;99926.88;;;1.82;100.00
19789;BME280;10054;59.332;18.244;2024-02-21T08:00:42;99925.58;;;1.82;100.00
19789;BME280;10054;59.332;18.244;2024-02-21T08:03:11;99922.53;;;1.83;100.00
19789;BME280;10054;59.332;18.244;2024-02-21T08:05:41;99917.27;;;1.84;100.00
19789;BME280;10054;59.332;18.244;2024-02-21T08:08:10;99910.71;;;1.86;100.00
19789;BME280;10054;59.332;18.244;2024-02-21T08:10:40;99914.95;;;1.88;100.00
19789;BME280;10054;59.332;18.244;2024-02-21T08:13:09;99914.89;;;1.90;100.00
19789;BME280;10054;59.332;18.244;2024-02-21T08:15:38;99911.27;;;1.94;100.00
19789;BME280;10054;59.332;18.244;2024-02-21T08:18:09;99912.51;;;1.95;100.00
19789;BME280;10054;59.332;18.244;2024-02-21T08:20:38;99920.19;;;1.98;100.00
19789;BME280;10054;59.332;18.244;2024-02-21T08:23:07;99917.81;;;2.04;100.00
19789;BME280;10054;59.332;18.244;2024-02-21T08:25:36;99916.94;;;2.15;100.00
19789;BME280;10054;59.332;18.244;2024-02-21T08:28:06;99916.81;;;2.18;100.00
19789;BME280;10054;59.332;18.244;2024-02-21T08:30:36;99918.18;;;2.17;100.00
19789;BME280;10054;59.332;18.244;2024-02-21T08:33:05;99914.39;;;2.14;100.00
19789;BME280;10054;59.332;18.244;2024-02-21T08:35:34;99911.91;;;2.11;100.00
19789;BME280;10054;59.332;18.244;2024-02-21T08:38:03;99916.78;;;2.08;100.00
19789;BME280;10054;59.332;18.244;2024-02-21T08:40:34;99917.23;;;2.08;100.00
19789;BME280;10054;59.332;18.244;2024-02-21T08:43:04;99915.55;;;2.07;100.00
19789;BME280;10054;59.332;18.244;2024-02-21T08:45:34;99915.55;;;2.07;100.00
19789;BME280;10054;59.332;18.244;2024-02-21T08:48:03;99911.25;;;2.06;100.00
19789;BME280;10054;59.332;18.244;2024-02-21T08:50:32;99912.48;;;2.07;100.00
19789;BME280;10054;59.332;18.244;2024-02-21T08:53:01;99913.33;;;2.08;100.00
19789;BME280;10054;59.332;18.244;2024-02-21T08:55:30;99914.12;;;2.10;100.00
19789;BME280;10054;59.332;18.244;2024-02-21T08:58:01;99909.31;;;2.11;100.00
19789;BME280;10054;59.332;18.244;2024-02-21T09:00:31;99905.23;;;2.15;100.00
19789;BME280;10054;59.332;18.244;2024-02-21T09:03:01;99907.31;;;2.17;100.00
19789;BME280;10054;59.332;18.244;2024-02-21T09:05:30;99903.30;;;2.20;100.00
19789;BME280;10054;59.332;18.244;2024-02-21T09:07:59;99898.39;;;2.23;100.00
19789;BME280;10054;59.332;18.244;2024-02-21T09:10:29;99898.72;;;2.25;100.00
19789;BME280;10054;59.332;18.244;2024-02-21T09:12:59;99897.30;;;2.28;100.00
19789;BME280;10054;59.332;18.244;2024-02-21T09:15:28;99896.27;;;2.33;100.00
19789;BME280;10054;59.332;18.244;2024-02-21T09:17:57;99894.45;;;2.35;100.00
19789;BME280;10054;59.332;18.244;2024-02-21T09:20:26;99886.97;;;2.37;100.00
19789;BME280;10054;59.332;18.244;2024-02-21T09:22:57;99879.49;;;2.40;100.00
19789;BME280;10054;59.332;18.244;2024-02-21T09:25:26;99883.73;;;2.42;100.00
19789;BME280;10054;59.332;18.244;2024-02-21T09:27:55;99878.84;;;2.45;100.00
19789;BME280;10054;59.332;18.244;2024-02-21T09:30:26;99871.70;;;2.50;100.00
19789;BME280;10054;59.332;18.244;2024-02-21T09:32:55;99869.04;;;2.61;100.00
19789;BME280;10054;59.332;18.244;2024-02-21T09:35:26;99861.42;;;2.67;100.00
19789;BME280;10054;59.332;18.244;2024-02-21T09:37:55;99854.46;;;2.68;100.00
19789;BME280;10054;59.332;18.244;2024-02-21T09:40:24;99854.91;;;2.67;100.00
19789;BME280;10054;59.332;18.244;2024-02-21T09:43:03;99856.22;;;2.67;100.00
19789;BME280;10054;59.332;18.244;2024-02-21T09:45:35;99851.01;;;2.67;100.00
19789;BME280;10054;59.332;18.244;2024-02-21T09:50:46;99853.03;;;2.71;100.00
19789;BME280;10054;59.332;18.244;2024-02-21T09:53:15;99842.48;;;2.74;100.00
19789;BME280;10054;59.332;18.244;2024-02-21T09:55:45;99843.66;;;2.77;100.00
19789;BME280;10054;59.332;18.244;2024-02-21T09:58:16;99842.34;;;2.77;100.00
19789;BME280;10054;59.332;18.244;2024-02-21T10:00:45;99843.20;;;2.77;100.00
19789;BME280;10054;59.332;18.244;2024-02-21T10:03:15;99846.25;;;2.77;100.00
19789;BME280;10054;59.332;18.244;2024-02-21T10:05:48;99842.80;;;2.76;100.00
19789;BME280;10054;59.332;18.244;2024-02-21T10:08:21;99839.81;;;2.75;100.00
19789;BME280;10054;59.332;18.244;2024-02-21T10:10:50;99839.81;;;2.75;100.00
19789;BME280;10054;59.332;18.244;2024-02-21T10:13:28;99835.52;;;2.74;100.00
19789;BME280;10054;59.332;18.244;2024-02-21T10:16:04;99835.45;;;2.76;100.00
19789;BME280;10054;59.332;18.244;2024-02-21T10:18:35;99827.18;;;2.76;100.00
19789;BME280;10054;59.332;18.244;2024-02-21T10:21:08;99820.28;;;2.75;100.00
19789;BME280;10054;59.332;18.244;2024-02-21T10:23:48;99824.58;;;2.76;100.00
19789;BME280;10054;59.332;18.244;2024-02-21T10:26:18;99821.97;;;2.76;100.00
19789;BME280;10054;59.332;18.244;2024-02-21T10:28:50;99820.60;;;2.78;100.00
19789;BME280;10054;59.332;18.244;2024-02-21T10:31:24;99818.39;;;2.79;100.00
19789;BME280;10054;59.332;18.244;2024-02-21T10:33:56;99814.41;;;2.80;100.00
19789;BME280;10054;59.332;18.244;2024-02-21T10:36:26;99816.04;;;2.83;100.00
19789;BME280;10054;59.332;18.244;2024-02-21T10:38:55;99817.73;;;2.84;100.00
19789;BME280;10054;59.332;18.244;2024-02-21T10:41:25;99817.28;;;2.84;100.00
19789;BME280;10054;59.332;18.244;2024-02-21T10:43:57;99808.55;;;2.85;100.00
19789;BME280;10054;59.332;18.244;2024-02-21T10:46:26;99805.03;;;2.86;100.00
19789;BME280;10054;59.332;18.244;2024-02-21T10:49:08;99803.27;;;2.87;100.00
19789;BME280;10054;59.332;18.244;2024-02-21T10:51:30;99810.95;;;2.90;100.00
19789;BME280;10054;59.332;18.244;2024-02-21T10:56:50;99800.40;;;2.93;100.00
19789;BME280;10054;59.332;18.244;2024-02-21T10:59:20;99798.11;;;2.95;100.00
19789;BME280;10054;59.332;18.244;2024-02-21T11:01:50;99795.44;;;2.97;100.00
19789;BME280;10054;59.332;18.244;2024-02-21T11:04:20;99794.03;;;2.98;100.00
19789;BME280;10054;59.332;18.244;2024-02-21T11:06:50;99790.52;;;3.00;100.00
19789;BME280;10054;59.332;18.244;2024-02-21T11:09:29;99783.72;;;2.97;100.00
19789;BME280;10054;59.332;18.244;2024-02-21T11:11:52;99781.40;;;3.00;100.00
19789;BME280;10054;59.332;18.244;2024-02-21T11:14:21;99782.70;;;3.00;100.00
19789;BME280;10054;59.332;18.244;2024-02-21T11:16:51;99775.80;;;2.98;100.00
19789;BME280;10054;59.332;18.244;2024-02-21T11:19:21;99778.02;;;2.97;100.00
19789;BME280;10054;59.332;18.244;2024-02-21T11:21:50;99774.67;;;2.95;100.00
19789;BME280;10054;59.332;18.244;2024-02-21T11:24:30;99777.95;;;2.99;100.00
19789;BME280;10054;59.332;18.244;2024-02-21T11:27:16;99772.96;;;3.13;100.00
19789;BME280;10054;59.332;18.244;2024-02-21T11:29:49;99774.77;;;3.21;100.00
19789;BME280;10054;59.332;18.244;2024-02-21T11:32:22;99776.20;;;3.18;100.00
19789;BME280;10054;59.332;18.244;2024-02-21T11:35:02;99772.57;;;3.12;100.00
19789;BME280;10054;59.332;18.244;2024-02-21T11:37:33;99770.63;;;3.07;100.00
19789;BME280;10054;59.332;18.244;2024-02-21T11:40:04;99775.14;;;3.04;100.00
19789;BME280;10054;59.332;18.244;2024-02-21T11:42:36;99766.48;;;3.03;100.00
19789;BME280;10054;59.332;18.244;2024-02-21T11:45:05;99766.93;;;3.03;100.00
19789;BME280;10054;59.332;18.244;2024-02-21T11:47:36;99759.50;;;3.04;100.00
19789;BME280;10054;59.332;18.244;2024-02-21T11:50:13;99756.44;;;3.04;100.00
19789;BME280;10054;59.332;18.244;2024-02-21T11:52:42;99746.41;;;3.05;100.00
19789;BME280;10054;59.332;18.244;2024-02-21T11:55:11;99753.31;;;3.06;100.00
19789;BME280;10054;59.332;18.244;2024-02-21T11:57:41;99745.03;;;3.07;100.00
19789;BME280;10054;59.332;18.244;2024-02-21T12:00:16;99743.34;;;3.06;100.00
19789;BME280;10054;59.332;18.244;2024-02-21T12:02:45;99744.19;;;3.06;100.00
19789;BME280;10054;59.332;18.244;2024-02-21T12:05:15;99750.63;;;3.08;100.00
19789;BME280;10054;59.332;18.244;2024-02-21T12:07:44;99748.87;;;3.08;100.00
19789;BME280;10054;59.332;18.244;2024-02-21T12:10:14;99746.12;;;3.11;100.00
19789;BME280;10054;59.332;18.244;2024-02-21T12:12:43;99745.67;;;3.12;100.00
19789;BME280;10054;59.332;18.244;2024-02-21T12:15:12;99747.75;;;3.14;100.00
19789;BME280;10054;59.332;18.244;2024-02-21T12:17:42;99740.70;;;3.16;100.00
19789;BME280;10054;59.332;18.244;2024-02-21T12:20:11;99743.23;;;3.17;100.00
19789;BME280;10054;59.332;18.244;2024-02-21T12:22:42;99736.13;;;3.21;100.00
19789;BME280;10054;59.332;18.244;2024-02-21T12:25:18;99740.42;;;3.22;100.00
19789;BME280;10054;59.332;18.244;2024-02-21T12:27:49;99746.80;;;3.25;100.00
19789;BME280;10054;59.332;18.244;2024-02-21T12:30:19;99742.89;;;3.25;100.00
19789;BME280;10054;59.332;18.244;2024-02-21T12:32:48;99748.03;;;3.26;100.00
19789;BME280;10054;59.332;18.244;2024-02-21T12:35:17;99740.98;;;3.28;100.00
19789;BME280;10054;59.332;18.244;2024-02-21T12:37:47;99739.67;;;3.28;100.00
19789;BME280;10054;59.332;18.244;2024-02-21T12:40:16;99740.52;;;3.29;100.00
19789;BME280;10054;59.332;18.244;2024-02-21T12:42:45;99739.15;;;3.30;100.00
19789;BME280;10054;59.332;18.244;2024-02-21T12:45:14;99731.64;;;3.33;100.00
19789;BME280;10054;59.332;18.244;2024-02-21T12:47:43;99733.27;;;3.36;100.00
19789;BME280;10054;59.332;18.244;2024-02-21T12:50:12;99731.42;;;3.38;100.00
19789;BME280;10054;59.332;18.244;2024-02-21T12:52:42;99728.67;;;3.41;100.00
19789;BME280;10054;59.332;18.244;2024-02-21T12:55:12;99733.22;;;3.46;100.00
19789;BME280;10054;59.332;18.244;2024-02-21T12:57:41;99730.31;;;3.52;100.00
19789;BME280;10054;59.332;18.244;2024-02-21T13:00:11;99725.34;;;3.56;100.00
19789;BME280;10054;59.332;18.244;2024-02-21T13:02:41;99722.97;;;3.60;100.00